Terminal Aerodrome Forecast
Issued by NWS Louisville, KY

Home | Current Version | Previous Version | Text Only | Print | Product List | Glossary On
Versions: 1 2 3 4 5 6 7 8 9 10 11 12 13
000
FTUS43 KLMK 031700
TAFBWG
TAF
KBWG 031720Z 0318/0418 18006KT P6SM SCT150
     FM040700 VRB03KT 4SM BR SCT150
     FM041300 22009KT P6SM SCT150=

USA.gov is the U.S. government's official web portal to all federal, state and local government web resources and services.